Time;durP1;ratioP1;P1;durP2;ratioP2;P2;SDS_P1;SDS_P2;PMS_P1;PMS_P2;Temp;Humidity;BMP_temperature;BMP_pressure;BME280_temperature;BME280_humidity;BME280_pressure;Samples;Min_cycle;Max_cycle;Signal;HPM_P1;HPM_P2
2023/01/09 00:00:17;;;;;;;;;;;6.10;99.90;;;;;;4989369;28;20021;-75
2023/01/09 00:02:44;;;;;;;;;;;6.00;99.90;;;;;;4990446;28;20009;-74
2023/01/09 00:05:11;;;;;;;;;;;6.00;99.90;;;;;;4988737;28;19973;-74
2023/01/09 00:07:39;;;;;;;;;;;6.00;99.90;;;;;;4988029;28;20080;-74
2023/01/09 00:10:07;;;;;;;;;;;5.90;99.90;;;;;;4991020;28;20033;-75
2023/01/09 00:12:34;;;;;;;;;;;6.00;99.90;;;;;;4992843;28;19932;-75
2023/01/09 00:15:00;;;;;;;;;;;5.90;99.90;;;;;;4990307;28;20360;-74
2023/01/09 00:17:27;;;;;;;;;;;5.90;99.90;;;;;;4989362;28;19932;-74
2023/01/09 00:19:54;;;;;;;;;;;5.90;99.90;;;;;;4990360;28;19926;-73
2023/01/09 00:22:20;;;;;;;;;;;5.80;99.90;;;;;;4988818;28;20384;-73
2023/01/09 00:24:48;;;;;;;;;;;5.80;99.90;;;;;;4995600;28;19934;-74
2023/01/09 00:27:15;;;;;;;;;;;5.80;99.90;;;;;;4988852;28;19936;-74
2023/01/09 00:29:44;;;;;;;;;;;5.80;99.90;;;;;;4989876;28;20444;-74
2023/01/09 00:32:11;;;;;;;;;;;5.80;99.90;;;;;;4980829;28;20364;-74
2023/01/09 00:34:38;;;;;;;;;;;5.80;99.90;;;;;;4990317;28;19926;-73
2023/01/09 00:37:10;;;;;;;;;;;5.80;99.90;;;;;;4988504;28;19930;-73
2023/01/09 00:39:37;;;;;;;;;;;5.80;99.90;;;;;;4988907;28;19925;-74
2023/01/09 00:42:06;;;;;;;;;;;5.80;99.90;;;;;;4987318;28;19930;-73
2023/01/09 00:44:34;;;;;;;;;;;5.80;99.90;;;;;;4989411;28;19925;-73
2023/01/09 00:47:02;;;;;;;;;;;5.90;99.90;;;;;;4988205;28;22190;-73
2023/01/09 00:49:30;;;;;;;;;;;5.90;99.90;;;;;;4989799;28;19976;-74
2023/01/09 00:51:56;;;;;;;;;;;5.90;99.90;;;;;;4990218;28;19926;-74
2023/01/09 00:54:23;;;;;;;;;;;5.80;99.90;;;;;;4989596;28;20365;-74
2023/01/09 00:56:50;;;;;;;;;;;5.90;99.90;;;;;;4987513;28;20016;-74
2023/01/09 00:59:18;;;;;;;;;;;5.80;99.90;;;;;;4989334;28;19926;-74
2023/01/09 01:01:45;;;;;;;;;;;5.90;99.90;;;;;;4988078;28;19932;-74
2023/01/09 01:09:45;;;;;;;;;;;5.90;99.90;;;;;;4989825;28;19949;-73
2023/01/09 01:12:12;;;;;;;;;;;5.90;99.90;;;;;;4989909;28;19952;-74
2023/01/09 01:14:40;;;;;;;;;;;5.90;99.90;;;;;;4988097;28;20323;-74
2023/01/09 01:17:06;;;;;;;;;;;5.80;99.90;;;;;;4987807;28;20024;-73
2023/01/09 01:19:33;;;;;;;;;;;5.80;99.90;;;;;;4988672;28;20020;-73
2023/01/09 01:22:00;;;;;;;;;;;5.70;99.90;;;;;;4988125;28;19940;-73
2023/01/09 01:24:27;;;;;;;;;;;5.80;99.90;;;;;;4987457;28;19983;-73
2023/01/09 01:26:53;;;;;;;;;;;5.80;99.90;;;;;;4986860;28;19944;-75
2023/01/09 01:29:20;;;;;;;;;;;5.90;99.90;;;;;;4989494;28;20216;-73
2023/01/09 01:31:48;;;;;;;;;;;5.90;99.90;;;;;;4989498;28;20038;-73
2023/01/09 01:34:15;;;;;;;;;;;5.80;99.90;;;;;;4988809;28;20291;-73
2023/01/09 01:36:41;;;;;;;;;;;5.80;99.90;;;;;;4999319;28;20400;-74
2023/01/09 01:39:08;;;;;;;;;;;5.80;99.90;;;;;;4988612;28;20407;-74
2023/01/09 01:41:35;;;;;;;;;;;5.70;99.90;;;;;;4990242;28;20012;-74
2023/01/09 01:44:02;;;;;;;;;;;5.70;99.90;;;;;;4988903;28;20212;-73
2023/01/09 01:46:30;;;;;;;;;;;5.70;99.90;;;;;;4990382;28;19976;-75
2023/01/09 01:48:59;;;;;;;;;;;5.70;99.90;;;;;;4987981;28;20389;-74
2023/01/09 01:51:27;;;;;;;;;;;5.60;99.90;;;;;;4988896;28;19941;-74
2023/01/09 01:53:57;;;;;;;;;;;5.60;99.90;;;;;;4988596;28;19936;-74
2023/01/09 01:56:25;;;;;;;;;;;5.60;99.90;;;;;;4993553;28;19933;-74
2023/01/09 01:58:54;;;;;;;;;;;5.60;99.90;;;;;;4988349;28;19930;-74
2023/01/09 02:01:22;;;;;;;;;;;5.60;99.90;;;;;;4987858;28;20017;-74
2023/01/09 02:03:50;;;;;;;;;;;5.60;99.90;;;;;;4988009;28;20381;-74
2023/01/09 02:06:18;;;;;;;;;;;5.60;99.90;;;;;;4989352;28;20025;-74
2023/01/09 02:08:45;;;;;;;;;;;5.70;99.90;;;;;;4987661;28;19925;-73
2023/01/09 02:11:13;;;;;;;;;;;5.60;99.90;;;;;;4988047;28;19934;-73
2023/01/09 02:13:40;;;;;;;;;;;5.70;99.90;;;;;;4986679;28;19926;-74
2023/01/09 02:16:13;;;;;;;;;;;5.80;99.90;;;;;;5000928;28;20381;-74
2023/01/09 02:18:46;;;;;;;;;;;6.00;99.90;;;;;;4985365;28;20139;-73
2023/01/09 02:21:18;;;;;;;;;;;6.00;99.90;;;;;;4979411;28;20371;-73
2023/01/09 02:23:59;;;;;;;;;;;6.10;99.90;;;;;;4987336;28;20004;-73
2023/01/09 02:26:43;;;;;;;;;;;6.10;99.90;;;;;;4988277;28;19925;-74
2023/01/09 02:29:28;;;;;;;;;;;6.20;99.90;;;;;;4993260;28;19936;-73
2023/01/09 02:31:59;;;;;;;;;;;6.20;99.90;;;;;;4986508;28;20359;-76
2023/01/09 02:34:31;;;;;;;;;;;6.20;99.90;;;;;;4982820;28;19932;-74
2023/01/09 02:37:01;;;;;;;;;;;6.20;99.90;;;;;;4984731;28;20284;-75
2023/01/09 02:39:32;;;;;;;;;;;6.30;99.90;;;;;;4988546;28;19932;-74
2023/01/09 02:42:02;;;;;;;;;;;6.30;99.90;;;;;;4987805;28;19937;-75
2023/01/09 02:44:30;;;;;;;;;;;6.40;99.90;;;;;;4988329;28;19925;-75
2023/01/09 02:47:01;;;;;;;;;;;6.40;99.90;;;;;;4992822;28;19926;-75
2023/01/09 02:49:28;;;;;;;;;;;6.40;99.90;;;;;;4989416;28;19926;-75
2023/01/09 02:51:58;;;;;;;;;;;6.50;99.90;;;;;;4986895;28;20020;-75
2023/01/09 02:54:31;;;;;;;;;;;6.50;99.90;;;;;;4993517;28;19957;-75
2023/01/09 02:57:04;;;;;;;;;;;6.50;99.90;;;;;;4979303;28;20012;-75
2023/01/09 02:59:34;;;;;;;;;;;6.50;99.90;;;;;;4988833;28;19932;-75
2023/01/09 03:02:15;;;;;;;;;;;6.60;99.90;;;;;;4986127;28;20064;-75
2023/01/09 03:04:49;;;;;;;;;;;6.60;99.90;;;;;;4976053;28;19926;-75
2023/01/09 03:07:21;;;;;;;;;;;6.70;99.90;;;;;;4986763;28;19932;-75
2023/01/09 03:09:49;;;;;;;;;;;6.70;99.90;;;;;;4992137;28;19933;-74
2023/01/09 03:12:19;;;;;;;;;;;6.70;99.90;;;;;;4990034;28;20388;-74
2023/01/09 03:14:47;;;;;;;;;;;6.70;99.90;;;;;;4988820;28;19932;-75
2023/01/09 03:17:17;;;;;;;;;;;6.70;99.90;;;;;;4990063;28;19926;-75
2023/01/09 03:19:45;;;;;;;;;;;6.70;99.90;;;;;;4991949;28;20005;-75
2023/01/09 03:22:12;;;;;;;;;;;6.70;99.90;;;;;;4984564;28;20004;-73
2023/01/09 03:24:38;;;;;;;;;;;6.80;99.90;;;;;;4989433;28;20323;-75
2023/01/09 03:27:06;;;;;;;;;;;6.80;99.90;;;;;;4988464;28;19934;-75
2023/01/09 03:29:33;;;;;;;;;;;6.70;99.90;;;;;;5001814;28;19925;-75
2023/01/09 03:31:59;;;;;;;;;;;6.70;99.90;;;;;;4987490;28;19926;-75
2023/01/09 03:34:27;;;;;;;;;;;6.80;99.90;;;;;;4990884;28;19932;-75
2023/01/09 03:36:54;;;;;;;;;;;6.80;99.90;;;;;;4989613;28;19932;-75
2023/01/09 03:39:21;;;;;;;;;;;6.90;99.90;;;;;;4991161;28;20012;-75
2023/01/09 03:41:47;;;;;;;;;;;6.80;99.90;;;;;;4989019;28;19932;-75
2023/01/09 03:44:14;;;;;;;;;;;6.80;99.90;;;;;;4991623;28;20381;-75
2023/01/09 03:46:41;;;;;;;;;;;6.70;99.90;;;;;;4990613;28;20115;-75
2023/01/09 03:49:07;;;;;;;;;;;6.60;99.90;;;;;;4989364;28;19991;-75
2023/01/09 03:51:35;;;;;;;;;;;6.60;99.90;;;;;;4989684;28;19926;-75
2023/01/09 03:54:02;;;;;;;;;;;6.50;99.90;;;;;;4983633;28;19940;-75
2023/01/09 03:56:29;;;;;;;;;;;6.40;99.90;;;;;;4991681;28;20308;-75
2023/01/09 03:58:55;;;;;;;;;;;6.40;99.90;;;;;;4988057;28;20021;-75
2023/01/09 04:01:22;;;;;;;;;;;6.50;99.90;;;;;;4997524;28;20012;-75
2023/01/09 04:03:49;;;;;;;;;;;6.40;99.90;;;;;;4988850;28;20029;-75
2023/01/09 04:06:15;;;;;;;;;;;6.50;99.90;;;;;;4991257;28;20009;-75
2023/01/09 04:08:45;;;;;;;;;;;6.50;99.90;;;;;;4988341;28;19961;-75
2023/01/09 04:11:11;;;;;;;;;;;6.50;99.90;;;;;;4981901;28;19933;-74
2023/01/09 04:13:38;;;;;;;;;;;6.50;99.90;;;;;;4989477;28;19926;-75
2023/01/09 04:16:05;;;;;;;;;;;6.60;99.90;;;;;;4990436;28;19926;-75
2023/01/09 04:18:32;;;;;;;;;;;6.60;99.90;;;;;;4988503;28;19926;-75
2023/01/09 04:20:58;;;;;;;;;;;6.70;99.90;;;;;;4990941;28;20107;-74
2023/01/09 04:23:25;;;;;;;;;;;6.70;99.90;;;;;;4987139;28;20037;-73
2023/01/09 04:25:53;;;;;;;;;;;6.70;99.90;;;;;;4989412;28;20020;-73
2023/01/09 04:28:20;;;;;;;;;;;6.80;99.90;;;;;;4987829;28;19933;-73
2023/01/09 04:30:46;;;;;;;;;;;6.90;99.90;;;;;;4989823;28;19926;-73
2023/01/09 04:33:13;;;;;;;;;;;7.00;99.90;;;;;;4987809;28;20308;-72
2023/01/09 04:35:39;;;;;;;;;;;7.00;99.90;;;;;;4987932;28;20304;-72
2023/01/09 04:38:06;;;;;;;;;;;7.10;99.90;;;;;;4992459;28;20356;-72
2023/01/09 04:40:33;;;;;;;;;;;7.10;99.90;;;;;;4989605;28;19981;-73
2023/01/09 04:43:01;;;;;;;;;;;7.20;99.90;;;;;;4989212;28;20005;-72
2023/01/09 04:45:27;;;;;;;;;;;7.20;99.90;;;;;;4990619;28;20024;-72
2023/01/09 04:47:54;;;;;;;;;;;7.30;99.90;;;;;;4987617;28;20013;-73
2023/01/09 04:50:21;;;;;;;;;;;7.30;99.90;;;;;;4992624;28;20020;-73
2023/01/09 04:52:48;;;;;;;;;;;7.30;99.90;;;;;;4987401;28;19965;-73
2023/01/09 04:55:14;;;;;;;;;;;7.30;99.90;;;;;;4989671;28;20037;-73
2023/01/09 04:57:41;;;;;;;;;;;7.30;99.90;;;;;;4987396;28;20335;-72
2023/01/09 05:00:11;;;;;;;;;;;7.20;99.90;;;;;;4990186;28;20379;-73
2023/01/09 05:02:37;;;;;;;;;;;7.10;99.90;;;;;;4987733;28;20376;-74
2023/01/09 05:05:04;;;;;;;;;;;7.10;99.90;;;;;;4989084;28;20447;-73
2023/01/09 05:07:31;;;;;;;;;;;7.10;99.90;;;;;;4991882;28;19925;-73
2023/01/09 05:09:58;;;;;;;;;;;7.10;99.90;;;;;;4989372;28;19958;-73
2023/01/09 05:12:24;;;;;;;;;;;7.10;99.90;;;;;;4989033;28;19926;-74
2023/01/09 05:14:51;;;;;;;;;;;7.10;99.90;;;;;;4989989;28;19926;-74
2023/01/09 05:17:19;;;;;;;;;;;7.10;99.90;;;;;;4987923;28;20013;-73
2023/01/09 05:19:46;;;;;;;;;;;7.10;99.90;;;;;;4989930;28;19926;-73
2023/01/09 05:22:12;;;;;;;;;;;7.00;99.90;;;;;;4990939;28;20040;-73
2023/01/09 05:24:39;;;;;;;;;;;6.90;99.90;;;;;;4989953;28;19932;-74
2023/01/09 05:27:06;;;;;;;;;;;6.90;99.90;;;;;;4988978;28;19932;-74
2023/01/09 05:29:32;;;;;;;;;;;6.90;99.90;;;;;;4991275;28;20045;-73
2023/01/09 05:31:59;;;;;;;;;;;6.90;99.90;;;;;;4989170;28;19965;-74
2023/01/09 05:34:27;;;;;;;;;;;6.90;99.90;;;;;;4987909;28;19932;-75
2023/01/09 05:36:54;;;;;;;;;;;6.90;99.90;;;;;;4987609;28;21086;-74
2023/01/09 05:39:20;;;;;;;;;;;6.90;99.90;;;;;;4985059;28;19930;-74
2023/01/09 05:41:47;;;;;;;;;;;6.90;99.90;;;;;;4990312;28;19961;-74
2023/01/09 05:44:14;;;;;;;;;;;6.90;99.90;;;;;;4985987;28;19926;-75
2023/01/09 05:46:40;;;;;;;;;;;6.90;99.90;;;;;;4988621;28;19972;-74
2023/01/09 05:49:07;;;;;;;;;;;6.90;99.90;;;;;;4993335;28;19926;-74
2023/01/09 05:51:35;;;;;;;;;;;6.90;99.90;;;;;;4987263;28;19976;-74
2023/01/09 05:54:03;;;;;;;;;;;6.90;99.90;;;;;;4986406;28;20038;-75
2023/01/09 05:56:30;;;;;;;;;;;6.90;99.90;;;;;;4990250;28;19983;-75
2023/01/09 05:58:56;;;;;;;;;;;6.90;99.90;;;;;;4987952;28;19926;-74
2023/01/09 06:01:23;;;;;;;;;;;6.90;99.90;;;;;;4988383;28;20016;-74
2023/01/09 06:03:50;;;;;;;;;;;6.90;99.90;;;;;;4985182;28;20056;-74
2023/01/09 06:06:16;;;;;;;;;;;7.00;99.90;;;;;;4989494;28;19995;-74
2023/01/09 06:08:44;;;;;;;;;;;6.90;99.90;;;;;;4988205;28;19926;-75
2023/01/09 06:11:11;;;;;;;;;;;6.90;99.90;;;;;;4987843;28;19933;-74
2023/01/09 06:13:38;;;;;;;;;;;6.90;99.90;;;;;;4987025;28;19933;-74
2023/01/09 06:16:05;;;;;;;;;;;6.90;99.90;;;;;;4987492;28;19997;-75
2023/01/09 06:18:32;;;;;;;;;;;6.90;99.90;;;;;;4987949;28;19926;-74
2023/01/09 06:20:58;;;;;;;;;;;6.90;99.90;;;;;;4988133;28;20012;-75
2023/01/09 06:23:25;;;;;;;;;;;6.90;99.90;;;;;;4986977;28;20025;-75
2023/01/09 06:25:53;;;;;;;;;;;7.00;99.90;;;;;;4975607;28;19977;-76
2023/01/09 06:28:20;;;;;;;;;;;7.00;99.90;;;;;;4987350;28;19951;-76
2023/01/09 06:30:49;;;;;;;;;;;7.00;99.90;;;;;;4987599;28;20397;-76
2023/01/09 06:33:16;;;;;;;;;;;6.90;99.90;;;;;;4986635;28;19925;-75
2023/01/09 06:35:43;;;;;;;;;;;6.90;99.90;;;;;;4983102;28;19926;-75
2023/01/09 06:38:09;;;;;;;;;;;6.90;99.90;;;;;;4985585;28;19940;-76
2023/01/09 06:40:36;;;;;;;;;;;6.90;99.90;;;;;;4987203;28;20001;-76
2023/01/09 06:43:04;;;;;;;;;;;6.80;99.90;;;;;;4985751;28;19926;-76
2023/01/09 06:45:31;;;;;;;;;;;6.80;99.90;;;;;;4988829;28;19933;-75
2023/01/09 06:47:57;;;;;;;;;;;6.80;99.90;;;;;;4982432;28;20304;-76
2023/01/09 06:50:24;;;;;;;;;;;6.90;99.90;;;;;;4985820;28;19926;-72
2023/01/09 06:52:51;;;;;;;;;;;6.90;99.90;;;;;;4984215;28;20350;-72
2023/01/09 06:55:17;;;;;;;;;;;6.90;99.90;;;;;;4988420;28;19961;-71
2023/01/09 06:57:44;;;;;;;;;;;7.00;99.90;;;;;;4987192;28;19926;-71
2023/01/09 07:00:13;;;;;;;;;;;7.00;99.90;;;;;;4987944;28;19925;-72
2023/01/09 07:02:39;;;;;;;;;;;7.00;99.90;;;;;;4984647;28;20385;-71
2023/01/09 07:05:07;;;;;;;;;;;7.00;99.90;;;;;;5006112;28;19932;-71
2023/01/09 07:07:34;;;;;;;;;;;7.00;99.90;;;;;;4994581;28;19926;-72
2023/01/09 07:10:01;;;;;;;;;;;7.00;99.90;;;;;;4985256;28;19943;-72
2023/01/09 07:12:27;;;;;;;;;;;7.00;99.90;;;;;;4979334;28;20844;-72
2023/01/09 07:14:54;;;;;;;;;;;7.10;99.90;;;;;;4982373;28;19965;-71
2023/01/09 07:17:22;;;;;;;;;;;7.00;99.90;;;;;;4981084;28;19940;-69
2023/01/09 07:19:49;;;;;;;;;;;7.00;99.90;;;;;;4986550;28;19988;-69
2023/01/09 07:22:15;;;;;;;;;;;7.00;99.90;;;;;;4985497;28;20008;-71
2023/01/09 07:24:43;;;;;;;;;;;6.90;99.90;;;;;;4986708;28;19985;-72
2023/01/09 07:27:09;;;;;;;;;;;6.90;99.90;;;;;;4979811;28;20009;-70
2023/01/09 07:29:36;;;;;;;;;;;6.80;99.90;;;;;;4982793;28;20380;-70
2023/01/09 07:32:03;;;;;;;;;;;6.90;99.90;;;;;;4994621;28;20288;-72
2023/01/09 07:34:31;;;;;;;;;;;6.80;99.90;;;;;;4981659;28;19965;-72
2023/01/09 07:36:58;;;;;;;;;;;6.90;99.90;;;;;;4976944;28;20457;-71
2023/01/09 07:39:24;;;;;;;;;;;7.00;99.90;;;;;;4983742;28;20013;-71
2023/01/09 07:41:51;;;;;;;;;;;7.00;99.90;;;;;;4992540;28;19978;-71
2023/01/09 07:44:18;;;;;;;;;;;7.00;99.90;;;;;;4992265;28;20020;-71
2023/01/09 07:46:44;;;;;;;;;;;7.10;99.90;;;;;;4991634;28;19926;-70
2023/01/09 07:49:11;;;;;;;;;;;7.10;99.90;;;;;;4987746;28;19929;-71
2023/01/09 07:51:41;;;;;;;;;;;7.10;99.90;;;;;;4985563;28;19932;-71
2023/01/09 07:54:08;;;;;;;;;;;7.10;99.90;;;;;;4985290;28;19977;-71
2023/01/09 07:56:35;;;;;;;;;;;7.10;99.90;;;;;;4983437;28;20025;-71
2023/01/09 07:59:02;;;;;;;;;;;7.10;99.90;;;;;;4987550;28;19926;-71
2023/01/09 08:01:28;;;;;;;;;;;7.10;99.90;;;;;;4990672;28;19925;-71
2023/01/09 08:03:55;;;;;;;;;;;7.10;99.90;;;;;;4987654;28;20087;-71
2023/01/09 08:06:22;;;;;;;;;;;7.10;99.90;;;;;;4986899;28;20032;-72
2023/01/09 08:08:50;;;;;;;;;;;7.10;99.90;;;;;;4991022;28;19980;-72
2023/01/09 08:11:16;;;;;;;;;;;7.10;99.90;;;;;;4990448;28;19932;-72
2023/01/09 08:13:43;;;;;;;;;;;7.10;99.90;;;;;;4984328;28;19936;-72
2023/01/09 08:16:10;;;;;;;;;;;7.20;99.90;;;;;;5002198;28;20023;-72
2023/01/09 08:18:36;;;;;;;;;;;7.10;99.90;;;;;;4985840;28;19926;-72
2023/01/09 08:21:03;;;;;;;;;;;7.10;99.90;;;;;;4986814;28;19926;-72
2023/01/09 08:23:30;;;;;;;;;;;7.10;99.90;;;;;;4989190;28;19932;-71
2023/01/09 08:25:58;;;;;;;;;;;7.20;99.90;;;;;;4991344;28;20256;-71
2023/01/09 08:28:25;;;;;;;;;;;7.10;99.90;;;;;;4984143;28;20175;-72
2023/01/09 08:30:51;;;;;;;;;;;7.20;99.90;;;;;;4986458;28;20025;-72
2023/01/09 08:33:18;;;;;;;;;;;7.20;99.90;;;;;;4983447;28;19985;-72
2023/01/09 08:35:45;;;;;;;;;;;7.20;99.90;;;;;;4984245;28;19976;-72
2023/01/09 08:38:11;;;;;;;;;;;7.20;99.90;;;;;;4978811;28;19972;-72
2023/01/09 08:40:38;;;;;;;;;;;7.20;99.90;;;;;;4983610;28;19985;-72
2023/01/09 08:48:41;;;;;;;;;;;7.20;99.90;;;;;;5008885;28;19925;-72
2023/01/09 08:51:07;;;;;;;;;;;7.20;99.90;;;;;;4987647;28;19949;-70
2023/01/09 08:53:34;;;;;;;;;;;7.20;99.90;;;;;;4988824;28;20394;-73
2023/01/09 08:56:01;;;;;;;;;;;7.20;99.90;;;;;;4977375;28;20013;-71
2023/01/09 08:58:29;;;;;;;;;;;7.20;99.90;;;;;;4981271;28;19961;-72
2023/01/09 09:00:57;;;;;;;;;;;7.20;99.90;;;;;;4981791;28;20045;-72
2023/01/09 09:03:24;;;;;;;;;;;7.20;99.90;;;;;;4988142;28;20457;-72
2023/01/09 09:05:51;;;;;;;;;;;7.20;99.90;;;;;;4985001;28;19968;-71
2023/01/09 09:08:19;;;;;;;;;;;7.20;99.90;;;;;;4982193;28;19932;-72
2023/01/09 09:10:45;;;;;;;;;;;7.20;99.90;;;;;;4993471;28;20346;-71
2023/01/09 09:13:12;;;;;;;;;;;7.20;99.90;;;;;;4987443;28;20036;-72
2023/01/09 09:15:40;;;;;;;;;;;7.20;99.90;;;;;;4993136;28;20379;-71
2023/01/09 09:18:08;;;;;;;;;;;7.20;99.90;;;;;;4989666;28;20019;-72
2023/01/09 09:20:36;;;;;;;;;;;7.20;99.90;;;;;;4981036;28;20292;-71
2023/01/09 09:23:02;;;;;;;;;;;7.20;99.90;;;;;;4987322;28;19926;-71
2023/01/09 09:25:29;;;;;;;;;;;7.20;99.90;;;;;;4981505;28;19932;-71
2023/01/09 09:27:56;;;;;;;;;;;7.20;99.90;;;;;;4981973;28;19933;-72
2023/01/09 09:30:23;;;;;;;;;;;7.10;99.90;;;;;;4980454;28;19932;-72
2023/01/09 09:32:51;;;;;;;;;;;7.10;99.90;;;;;;4987835;28;21423;-71
2023/01/09 09:35:19;;;;;;;;;;;7.00;99.90;;;;;;4990257;28;20391;-72
2023/01/09 09:37:52;;;;;;;;;;;7.00;99.90;;;;;;4984727;28;20408;-73
2023/01/09 09:40:20;;;;;;;;;;;6.90;99.90;;;;;;4989472;28;19932;-70
2023/01/09 09:45:41;;;;;;;;;;;6.90;99.90;;;;;;4988539;28;19940;-70
2023/01/09 09:48:15;;;;;;;;;;;6.90;99.90;;;;;;4985497;28;20355;-72
2023/01/09 09:50:51;;;;;;;;;;;6.90;99.90;;;;;;4992978;28;20357;-71
2023/01/09 09:53:21;;;;;;;;;;;6.90;99.90;;;;;;4983558;28;20312;-71
2023/01/09 09:55:49;;;;;;;;;;;6.90;99.90;;;;;;4988218;28;20347;-71
2023/01/09 09:58:20;;;;;;;;;;;6.90;99.90;;;;;;4981632;28;20016;-72
2023/01/09 10:00:47;;;;;;;;;;;7.00;99.90;;;;;;4989015;28;19990;-73
2023/01/09 10:03:21;;;;;;;;;;;7.10;99.90;;;;;;4986309;28;20012;-72
2023/01/09 10:05:48;;;;;;;;;;;7.20;99.90;;;;;;4988892;28;20036;-73
2023/01/09 10:08:18;;;;;;;;;;;7.20;99.90;;;;;;4987688;28;20012;-73
2023/01/09 10:10:47;;;;;;;;;;;7.30;99.90;;;;;;4990977;28;20033;-69
2023/01/09 10:16:07;;;;;;;;;;;7.40;99.90;;;;;;4987246;28;19971;-72
2023/01/09 10:18:44;;;;;;;;;;;7.40;99.90;;;;;;4985497;28;20017;-72
2023/01/09 10:21:16;;;;;;;;;;;7.40;99.90;;;;;;4983581;28;19930;-73
2023/01/09 10:23:58;;;;;;;;;;;7.30;99.90;;;;;;4978282;28;19926;-72
2023/01/09 10:26:28;;;;;;;;;;;7.20;99.90;;;;;;4979708;28;19932;-72
2023/01/09 10:29:01;;;;;;;;;;;7.20;99.90;;;;;;4986673;28;20445;-73
2023/01/09 10:31:31;;;;;;;;;;;7.30;99.90;;;;;;4989003;28;19926;-76
2023/01/09 10:34:06;;;;;;;;;;;7.20;99.90;;;;;;4985083;28;19932;-76
2023/01/09 10:36:39;;;;;;;;;;;7.20;99.90;;;;;;4988853;28;19926;-76
2023/01/09 10:39:10;;;;;;;;;;;7.20;99.90;;;;;;4993548;28;20210;-76
2023/01/09 10:41:39;;;;;;;;;;;7.20;99.90;;;;;;4985338;28;20419;-76
2023/01/09 10:44:07;;;;;;;;;;;7.20;99.90;;;;;;4981086;28;19934;-78
2023/01/09 10:46:39;;;;;;;;;;;7.20;99.90;;;;;;4987347;28;19932;-76
2023/01/09 10:49:11;;;;;;;;;;;7.30;99.90;;;;;;4990422;28;20026;-76
2023/01/09 10:51:44;;;;;;;;;;;7.20;99.90;;;;;;4970099;28;19993;-77
2023/01/09 10:54:12;;;;;;;;;;;7.20;99.90;;;;;;4985225;28;19926;-73
2023/01/09 10:56:40;;;;;;;;;;;7.30;99.90;;;;;;4995888;28;20341;-73
2023/01/09 10:59:08;;;;;;;;;;;7.40;99.90;;;;;;4985538;28;20418;-73
2023/01/09 11:01:37;;;;;;;;;;;7.50;99.90;;;;;;4988702;28;19932;-72
2023/01/09 11:04:10;;;;;;;;;;;7.50;99.90;;;;;;4980778;28;20020;-75
2023/01/09 11:06:43;;;;;;;;;;;7.50;99.90;;;;;;4988534;28;19934;-74
2023/01/09 11:09:09;;;;;;;;;;;7.50;99.90;;;;;;4989156;28;19930;-73
2023/01/09 11:11:37;;;;;;;;;;;7.40;99.90;;;;;;4987338;28;20277;-74
2023/01/09 11:14:05;;;;;;;;;;;7.50;99.90;;;;;;4988692;28;20016;-75
2023/01/09 11:16:31;;;;;;;;;;;7.50;99.90;;;;;;4982696;28;20351;-75
2023/01/09 11:19:00;;;;;;;;;;;7.60;99.90;;;;;;4985466;28;20021;-75
2023/01/09 11:21:31;;;;;;;;;;;7.60;99.90;;;;;;4986056;28;20017;-75
2023/01/09 11:24:17;;;;;;;;;;;7.60;99.90;;;;;;4986025;28;19926;-74
2023/01/09 11:26:44;;;;;;;;;;;7.80;99.90;;;;;;4976047;28;19926;-74
2023/01/09 11:29:11;;;;;;;;;;;8.10;99.90;;;;;;4982456;28;19987;-75
2023/01/09 11:31:37;;;;;;;;;;;8.20;99.90;;;;;;4988052;28;19926;-75
2023/01/09 11:34:04;;;;;;;;;;;8.20;99.90;;;;;;4992453;28;20242;-75
2023/01/09 11:36:31;;;;;;;;;;;8.20;99.90;;;;;;4991411;28;20012;-75
2023/01/09 11:38:58;;;;;;;;;;;8.20;99.90;;;;;;4993480;28;19965;-74
2023/01/09 11:41:29;;;;;;;;;;;8.30;99.90;;;;;;4988660;28;19925;-75
2023/01/09 11:43:57;;;;;;;;;;;8.40;99.90;;;;;;4981478;28;19933;-75
2023/01/09 11:46:31;;;;;;;;;;;8.40;99.90;;;;;;4985433;28;20037;-74
2023/01/09 11:48:58;;;;;;;;;;;8.40;99.90;;;;;;4988069;28;20008;-74
2023/01/09 11:51:26;;;;;;;;;;;8.30;99.90;;;;;;4988983;28;19966;-74
2023/01/09 11:53:55;;;;;;;;;;;8.10;99.90;;;;;;4991618;28;19926;-75
2023/01/09 11:56:23;;;;;;;;;;;8.10;99.90;;;;;;4988659;28;19925;-74
2023/01/09 11:58:51;;;;;;;;;;;8.00;99.90;;;;;;4986027;28;19987;-73
2023/01/09 12:01:30;;;;;;;;;;;8.10;99.90;;;;;;4982983;28;20008;-74
2023/01/09 12:04:08;;;;;;;;;;;8.00;99.90;;;;;;5052490;28;20758;-74
2023/01/09 12:06:39;;;;;;;;;;;8.00;99.90;;;;;;4990538;28;20305;-74
2023/01/09 12:09:06;;;;;;;;;;;7.90;99.90;;;;;;4989648;28;20013;-74
2023/01/09 12:11:36;;;;;;;;;;;7.90;99.90;;;;;;4990249;28;20008;-74
2023/01/09 12:14:12;;;;;;;;;;;7.90;99.90;;;;;;4987386;28;19971;-74
2023/01/09 12:16:42;;;;;;;;;;;7.90;99.90;;;;;;5000886;28;20394;-74
2023/01/09 12:19:18;;;;;;;;;;;7.80;99.90;;;;;;4989670;28;20380;-74
2023/01/09 12:21:48;;;;;;;;;;;7.80;99.90;;;;;;4989405;28;19933;-74
2023/01/09 12:24:24;;;;;;;;;;;7.90;99.90;;;;;;4989355;28;19930;-74
2023/01/09 12:26:55;;;;;;;;;;;7.90;99.90;;;;;;4991339;28;19929;-74
2023/01/09 12:29:41;;;;;;;;;;;7.90;99.90;;;;;;4987869;28;20003;-74
2023/01/09 12:32:15;;;;;;;;;;;8.00;99.90;;;;;;4987868;28;19926;-74
2023/01/09 12:34:51;;;;;;;;;;;8.10;99.90;;;;;;4989950;28;19961;-74
2023/01/09 12:37:29;;;;;;;;;;;8.10;99.90;;;;;;4992430;28;20017;-74
2023/01/09 12:40:00;;;;;;;;;;;8.20;99.90;;;;;;4986886;28;19936;-75
2023/01/09 12:42:34;;;;;;;;;;;8.20;99.90;;;;;;4982772;28;20416;-74
2023/01/09 12:45:07;;;;;;;;;;;8.20;99.90;;;;;;4989162;28;19932;-74
2023/01/09 12:47:44;;;;;;;;;;;8.20;99.90;;;;;;4977024;28;20021;-74
2023/01/09 12:50:35;;;;;;;;;;;8.20;99.90;;;;;;4985776;28;20325;-74
2023/01/09 12:53:11;;;;;;;;;;;8.10;99.90;;;;;;4968478;28;20004;-74
2023/01/09 12:55:39;;;;;;;;;;;8.20;99.90;;;;;;4991132;28;19932;-74
2023/01/09 12:58:08;;;;;;;;;;;8.30;99.90;;;;;;4988407;28;19926;-74
2023/01/09 13:00:38;;;;;;;;;;;8.40;99.90;;;;;;4987157;28;19965;-74
2023/01/09 13:03:05;;;;;;;;;;;8.40;99.90;;;;;;4988738;28;20332;-74
2023/01/09 13:05:34;;;;;;;;;;;8.40;99.90;;;;;;4994874;28;19944;-74
2023/01/09 13:08:03;;;;;;;;;;;8.40;99.90;;;;;;4985788;28;20281;-74
2023/01/09 13:10:32;;;;;;;;;;;8.40;99.90;;;;;;4988227;28;19980;-74
2023/01/09 13:13:05;;;;;;;;;;;8.40;99.90;;;;;;4995922;28;19985;-74
2023/01/09 13:15:33;;;;;;;;;;;8.40;99.90;;;;;;4986833;28;19945;-74
2023/01/09 13:18:04;;;;;;;;;;;8.50;99.90;;;;;;4985863;28;19926;-74
2023/01/09 13:20:33;;;;;;;;;;;8.50;99.90;;;;;;4987405;28;19926;-74
2023/01/09 13:23:01;;;;;;;;;;;8.40;99.90;;;;;;4986525;28;20363;-74
2023/01/09 13:25:37;;;;;;;;;;;8.50;99.90;;;;;;4987786;28;19930;-74
2023/01/09 13:28:07;;;;;;;;;;;8.50;99.90;;;;;;4988961;28;19926;-74
2023/01/09 13:30:44;;;;;;;;;;;8.40;99.90;;;;;;4989654;28;20056;-74
2023/01/09 13:33:16;;;;;;;;;;;8.50;99.90;;;;;;4986276;28;20394;-76
2023/01/09 13:35:50;;;;;;;;;;;8.60;99.90;;;;;;4994471;28;19926;-75
2023/01/09 13:38:18;;;;;;;;;;;8.60;99.90;;;;;;4984067;28;19933;-74
2023/01/09 13:40:45;;;;;;;;;;;8.60;99.90;;;;;;4990298;28;20411;-74
2023/01/09 13:43:13;;;;;;;;;;;8.60;99.90;;;;;;4984968;28;19925;-74
2023/01/09 13:45:40;;;;;;;;;;;8.80;99.90;;;;;;4989134;28;19937;-74
2023/01/09 13:48:37;;;;;;;;;;;8.90;99.90;;;;;;4987213;28;19929;-74
2023/01/09 13:51:18;;;;;;;;;;;8.90;99.90;;;;;;5019837;28;20008;-74
2023/01/09 13:53:47;;;;;;;;;;;8.90;99.90;;;;;;4958982;28;19926;-75
2023/01/09 13:56:14;;;;;;;;;;;8.90;99.90;;;;;;4987030;28;19932;-74
2023/01/09 13:58:57;;;;;;;;;;;8.90;99.90;;;;;;4981425;28;19952;-74
2023/01/09 14:01:41;;;;;;;;;;;9.00;99.90;;;;;;4979358;28;20432;-76
2023/01/09 14:04:26;;;;;;;;;;;9.10;99.90;;;;;;4986351;28;19953;-76
2023/01/09 14:07:07;;;;;;;;;;;9.00;99.90;;;;;;4984064;28;20380;-75
2023/01/09 14:09:36;;;;;;;;;;;9.10;99.90;;;;;;4986709;28;19937;-75
2023/01/09 14:12:04;;;;;;;;;;;9.10;99.90;;;;;;4981791;28;19930;-75
2023/01/09 14:14:32;;;;;;;;;;;9.20;99.90;;;;;;4985167;28;20004;-74
2023/01/09 14:17:02;;;;;;;;;;;9.20;99.90;;;;;;4980055;28;19938;-73
2023/01/09 14:19:35;;;;;;;;;;;9.10;99.90;;;;;;4983883;28;19949;-75
2023/01/09 14:22:02;;;;;;;;;;;9.10;99.90;;;;;;4980647;28;19940;-75
2023/01/09 14:24:31;;;;;;;;;;;9.00;99.90;;;;;;4988491;28;20020;-73
2023/01/09 14:27:00;;;;;;;;;;;8.70;99.90;;;;;;4986616;28;19930;-74
2023/01/09 14:29:52;;;;;;;;;;;8.40;99.90;;;;;;4985790;28;20028;-73
2023/01/09 14:32:42;;;;;;;;;;;8.30;99.90;;;;;;4968141;28;19930;-74
2023/01/09 14:35:22;;;;;;;;;;;8.30;99.90;;;;;;4985100;28;19968;-74
2023/01/09 14:37:54;;;;;;;;;;;8.20;99.90;;;;;;4978954;28;19933;-74
2023/01/09 14:40:22;;;;;;;;;;;8.10;99.90;;;;;;4985041;28;20384;-75
2023/01/09 14:42:52;;;;;;;;;;;8.10;99.90;;;;;;4984123;28;19932;-74
2023/01/09 14:45:21;;;;;;;;;;;8.00;99.90;;;;;;4986575;28;19932;-75
2023/01/09 14:47:49;;;;;;;;;;;8.00;99.90;;;;;;4984964;28;20256;-74
2023/01/09 14:50:17;;;;;;;;;;;8.10;99.90;;;;;;4986516;28;19925;-74
2023/01/09 14:52:47;;;;;;;;;;;8.10;99.90;;;;;;4985395;28;19926;-74
2023/01/09 14:55:17;;;;;;;;;;;8.10;99.90;;;;;;4985429;28;20372;-74
2023/01/09 14:57:44;;;;;;;;;;;8.20;99.90;;;;;;4980769;28;19926;-73